sensor_id;sensor_type;location;lat;lon;timestamp;P1;durP1;ratioP1;P2;durP2;ratioP2
60718;SDS011;46567;51.660;5.824;2023-05-20T00:02:04;8.3;;;3.2;;
60718;SDS011;46567;51.660;5.824;2023-05-20T00:07:04;7.1;;;3.5;;
60718;SDS011;46567;51.660;5.824;2023-05-20T00:12:04;8.2;;;3.8;;
60718;SDS011;46567;51.660;5.824;2023-05-20T00:17:04;6.6;;;3.8;;
60718;SDS011;46567;51.660;5.824;2023-05-20T00:22:04;5.5;;;3.6;;
60718;SDS011;46567;51.660;5.824;2023-05-20T00:27:04;6.6;;;3.2;;
60718;SDS011;46567;51.660;5.824;2023-05-20T00:32:04;7.7;;;3.8;;
60718;SDS011;46567;51.660;5.824;2023-05-20T00:37:04;8.4;;;3.8;;
60718;SDS011;46567;51.660;5.824;2023-05-20T00:42:04;6.5;;;3.6;;
60718;SDS011;46567;51.660;5.824;2023-05-20T00:47:04;7.5;;;3.5;;
60718;SDS011;46567;51.660;5.824;2023-05-20T00:52:04;8.2;;;3.9;;
60718;SDS011;46567;51.660;5.824;2023-05-20T00:57:04;8.7;;;3.9;;
60718;SDS011;46567;51.660;5.824;2023-05-20T01:02:04;10.0;;;3.7;;
60718;SDS011;46567;51.660;5.824;2023-05-20T01:07:04;6.5;;;3.8;;
60718;SDS011;46567;51.660;5.824;2023-05-20T01:12:13;7.4;;;3.6;;
60718;SDS011;46567;51.660;5.824;2023-05-20T01:17:04;7.0;;;4.1;;
60718;SDS011;46567;51.660;5.824;2023-05-20T01:22:05;7.8;;;3.8;;
60718;SDS011;46567;51.660;5.824;2023-05-20T01:27:04;7.2;;;3.9;;
60718;SDS011;46567;51.660;5.824;2023-05-20T01:32:04;8.5;;;3.8;;
60718;SDS011;46567;51.660;5.824;2023-05-20T01:37:04;8.7;;;3.9;;
60718;SDS011;46567;51.660;5.824;2023-05-20T01:42:04;7.8;;;3.9;;
60718;SDS011;46567;51.660;5.824;2023-05-20T01:47:04;8.4;;;4.2;;
60718;SDS011;46567;51.660;5.824;2023-05-20T01:52:04;6.8;;;3.6;;
60718;SDS011;46567;51.660;5.824;2023-05-20T01:57:04;8.6;;;3.9;;
60718;SDS011;46567;51.660;5.824;2023-05-20T02:02:04;7.9;;;3.6;;
60718;SDS011;46567;51.660;5.824;2023-05-20T02:07:04;7.3;;;4.0;;
60718;SDS011;46567;51.660;5.824;2023-05-20T02:12:04;7.9;;;3.9;;
60718;SDS011;46567;51.660;5.824;2023-05-20T02:17:04;10.1;;;4.5;;
60718;SDS011;46567;51.660;5.824;2023-05-20T02:22:05;6.7;;;3.8;;
60718;SDS011;46567;51.660;5.824;2023-05-20T02:27:04;7.1;;;4.1;;
60718;SDS011;46567;51.660;5.824;2023-05-20T02:32:04;7.0;;;4.0;;
60718;SDS011;46567;51.660;5.824;2023-05-20T02:37:04;9.1;;;4.1;;
60718;SDS011;46567;51.660;5.824;2023-05-20T02:42:04;6.7;;;4.0;;
60718;SDS011;46567;51.660;5.824;2023-05-20T02:47:04;15.0;;;4.6;;
60718;SDS011;46567;51.660;5.824;2023-05-20T02:52:04;6.0;;;3.7;;
60718;SDS011;46567;51.660;5.824;2023-05-20T02:57:04;7.7;;;4.0;;
60718;SDS011;46567;51.660;5.824;2023-05-20T03:02:04;7.6;;;4.6;;
60718;SDS011;46567;51.660;5.824;2023-05-20T03:07:04;7.6;;;4.1;;
60718;SDS011;46567;51.660;5.824;2023-05-20T03:12:04;8.8;;;4.7;;
60718;SDS011;46567;51.660;5.824;2023-05-20T03:17:04;8.2;;;4.5;;
60718;SDS011;46567;51.660;5.824;2023-05-20T03:22:04;7.9;;;4.3;;
60718;SDS011;46567;51.660;5.824;2023-05-20T03:27:04;8.5;;;6.5;;
60718;SDS011;46567;51.660;5.824;2023-05-20T03:32:04;8.3;;;4.5;;
60718;SDS011;46567;51.660;5.824;2023-05-20T03:37:04;7.0;;;4.4;;
60718;SDS011;46567;51.660;5.824;2023-05-20T03:42:04;6.7;;;4.3;;
60718;SDS011;46567;51.660;5.824;2023-05-20T03:47:04;6.9;;;4.3;;
60718;SDS011;46567;51.660;5.824;2023-05-20T03:52:04;7.5;;;4.7;;
60718;SDS011;46567;51.660;5.824;2023-05-20T03:57:04;7.0;;;4.7;;
60718;SDS011;46567;51.660;5.824;2023-05-20T04:02:04;7.8;;;4.1;;
60718;SDS011;46567;51.660;5.824;2023-05-20T04:07:04;8.0;;;4.6;;
60718;SDS011;46567;51.660;5.824;2023-05-20T04:12:04;8.2;;;4.2;;
60718;SDS011;46567;51.660;5.824;2023-05-20T04:17:04;8.8;;;4.8;;
60718;SDS011;46567;51.660;5.824;2023-05-20T04:22:04;8.8;;;4.7;;
60718;SDS011;46567;51.660;5.824;2023-05-20T04:27:04;9.0;;;4.5;;
60718;SDS011;46567;51.660;5.824;2023-05-20T04:32:04;7.3;;;4.4;;
60718;SDS011;46567;51.660;5.824;2023-05-20T04:37:04;7.6;;;4.4;;
60718;SDS011;46567;51.660;5.824;2023-05-20T04:42:04;8.8;;;4.1;;
60718;SDS011;46567;51.660;5.824;2023-05-20T04:47:04;10.3;;;4.7;;
60718;SDS011;46567;51.660;5.824;2023-05-20T04:52:04;8.1;;;4.5;;
60718;SDS011;46567;51.660;5.824;2023-05-20T04:57:04;7.3;;;4.2;;
60718;SDS011;46567;51.660;5.824;2023-05-20T05:02:04;6.9;;;4.8;;
60718;SDS011;46567;51.660;5.824;2023-05-20T05:07:04;7.0;;;4.4;;
60718;SDS011;46567;51.660;5.824;2023-05-20T05:12:04;6.9;;;4.4;;
60718;SDS011;46567;51.660;5.824;2023-05-20T05:17:04;6.8;;;4.2;;
60718;SDS011;46567;51.660;5.824;2023-05-20T05:22:04;5.6;;;3.8;;
60718;SDS011;46567;51.660;5.824;2023-05-20T05:27:04;6.1;;;3.9;;
60718;SDS011;46567;51.660;5.824;2023-05-20T05:32:04;7.8;;;4.4;;
60718;SDS011;46567;51.660;5.824;2023-05-20T05:37:04;6.7;;;3.9;;
60718;SDS011;46567;51.660;5.824;2023-05-20T05:42:04;10.9;;;3.9;;
60718;SDS011;46567;51.660;5.824;2023-05-20T05:47:04;6.5;;;3.8;;
60718;SDS011;46567;51.660;5.824;2023-05-20T05:52:04;7.1;;;4.3;;
60718;SDS011;46567;51.660;5.824;2023-05-20T05:57:04;5.1;;;3.6;;
60718;SDS011;46567;51.660;5.824;2023-05-20T06:02:04;5.5;;;3.8;;
60718;SDS011;46567;51.660;5.824;2023-05-20T06:07:04;7.9;;;4.0;;
60718;SDS011;46567;51.660;5.824;2023-05-20T06:12:04;7.5;;;4.0;;
60718;SDS011;46567;51.660;5.824;2023-05-20T06:17:04;5.0;;;3.6;;
60718;SDS011;46567;51.660;5.824;2023-05-20T06:22:04;8.6;;;3.6;;
60718;SDS011;46567;51.660;5.824;2023-05-20T06:27:04;7.1;;;3.6;;
60718;SDS011;46567;51.660;5.824;2023-05-20T06:32:04;6.6;;;3.4;;
60718;SDS011;46567;51.660;5.824;2023-05-20T06:37:04;5.1;;;4.0;;
60718;SDS011;46567;51.660;5.824;2023-05-20T06:42:04;7.6;;;3.6;;
60718;SDS011;46567;51.660;5.824;2023-05-20T06:47:04;7.4;;;3.3;;
60718;SDS011;46567;51.660;5.824;2023-05-20T06:52:04;4.3;;;3.4;;
60718;SDS011;46567;51.660;5.824;2023-05-20T06:57:04;6.6;;;3.0;;
60718;SDS011;46567;51.660;5.824;2023-05-20T07:02:04;6.1;;;3.1;;
60718;SDS011;46567;51.660;5.824;2023-05-20T07:07:04;4.7;;;3.0;;
60718;SDS011;46567;51.660;5.824;2023-05-20T07:12:04;6.2;;;3.1;;
60718;SDS011;46567;51.660;5.824;2023-05-20T07:17:04;3.8;;;3.1;;
60718;SDS011;46567;51.660;5.824;2023-05-20T07:22:04;6.3;;;3.3;;
60718;SDS011;46567;51.660;5.824;2023-05-20T07:27:04;3.7;;;3.1;;
60718;SDS011;46567;51.660;5.824;2023-05-20T07:32:04;4.4;;;2.9;;
60718;SDS011;46567;51.660;5.824;2023-05-20T07:37:04;5.6;;;3.4;;
60718;SDS011;46567;51.660;5.824;2023-05-20T07:42:04;3.9;;;2.9;;
60718;SDS011;46567;51.660;5.824;2023-05-20T07:47:04;4.1;;;3.0;;
60718;SDS011;46567;51.660;5.824;2023-05-20T07:52:04;4.1;;;2.9;;
60718;SDS011;46567;51.660;5.824;2023-05-20T07:57:04;6.0;;;3.3;;
60718;SDS011;46567;51.660;5.824;2023-05-20T08:02:04;6.2;;;3.7;;
60718;SDS011;46567;51.660;5.824;2023-05-20T08:07:04;6.2;;;3.3;;
60718;SDS011;46567;51.660;5.824;2023-05-20T08:12:04;5.5;;;3.5;;
60718;SDS011;46567;51.660;5.824;2023-05-20T08:17:04;6.9;;;3.2;;
60718;SDS011;46567;51.660;5.824;2023-05-20T08:22:04;12.2;;;3.4;;
60718;SDS011;46567;51.660;5.824;2023-05-20T08:27:04;5.1;;;3.2;;
60718;SDS011;46567;51.660;5.824;2023-05-20T08:32:04;3.4;;;2.4;;
60718;SDS011;46567;51.660;5.824;2023-05-20T08:37:04;4.9;;;2.6;;
60718;SDS011;46567;51.660;5.824;2023-05-20T08:42:04;5.5;;;3.0;;
60718;SDS011;46567;51.660;5.824;2023-05-20T08:47:04;8.9;;;3.0;;
60718;SDS011;46567;51.660;5.824;2023-05-20T08:52:04;4.1;;;2.9;;
60718;SDS011;46567;51.660;5.824;2023-05-20T08:57:04;4.6;;;2.8;;
60718;SDS011;46567;51.660;5.824;2023-05-20T09:02:04;5.3;;;2.9;;
60718;SDS011;46567;51.660;5.824;2023-05-20T09:07:04;4.7;;;3.0;;
60718;SDS011;46567;51.660;5.824;2023-05-20T09:12:04;4.2;;;2.9;;
60718;SDS011;46567;51.660;5.824;2023-05-20T09:17:04;4.4;;;3.1;;
60718;SDS011;46567;51.660;5.824;2023-05-20T09:22:04;5.5;;;3.0;;
60718;SDS011;46567;51.660;5.824;2023-05-20T09:27:04;4.2;;;2.5;;
60718;SDS011;46567;51.660;5.824;2023-05-20T09:32:04;7.0;;;2.8;;
60718;SDS011;46567;51.660;5.824;2023-05-20T09:37:04;4.5;;;2.5;;
60718;SDS011;46567;51.660;5.824;2023-05-20T09:42:09;4.2;;;2.4;;
60718;SDS011;46567;51.660;5.824;2023-05-20T09:47:04;3.6;;;2.4;;
60718;SDS011;46567;51.660;5.824;2023-05-20T09:52:04;2.7;;;2.4;;
60718;SDS011;46567;51.660;5.824;2023-05-20T09:57:04;4.0;;;2.4;;
60718;SDS011;46567;51.660;5.824;2023-05-20T10:02:05;4.7;;;2.8;;
60718;SDS011;46567;51.660;5.824;2023-05-20T10:07:37;3.0;;;2.5;;
60718;SDS011;46567;51.660;5.824;2023-05-20T10:12:52;3.0;;;2.5;;
60718;SDS011;46567;51.660;5.824;2023-05-20T10:17:40;2.7;;;2.1;;
60718;SDS011;46567;51.660;5.824;2023-05-20T10:22:04;3.4;;;2.5;;
60718;SDS011;46567;51.660;5.824;2023-05-20T10:27:08;2.9;;;2.1;;
60718;SDS011;46567;51.660;5.824;2023-05-20T10:32:04;2.7;;;2.1;;
60718;SDS011;46567;51.660;5.824;2023-05-20T10:37:04;3.0;;;2.2;;
60718;SDS011;46567;51.660;5.824;2023-05-20T10:42:11;4.5;;;2.7;;
60718;SDS011;46567;51.660;5.824;2023-05-20T10:47:04;3.1;;;2.4;;
60718;SDS011;46567;51.660;5.824;2023-05-20T10:52:05;3.1;;;2.4;;
60718;SDS011;46567;51.660;5.824;2023-05-20T10:57:05;2.6;;;2.2;;
60718;SDS011;46567;51.660;5.824;2023-05-20T11:02:04;4.9;;;2.5;;
60718;SDS011;46567;51.660;5.824;2023-05-20T11:07:04;3.2;;;2.4;;
60718;SDS011;46567;51.660;5.824;2023-05-20T11:12:04;5.7;;;2.6;;
60718;SDS011;46567;51.660;5.824;2023-05-20T11:17:06;3.5;;;2.2;;
60718;SDS011;46567;51.660;5.824;2023-05-20T11:22:04;4.0;;;3.0;;
60718;SDS011;46567;51.660;5.824;2023-05-20T11:27:04;2.8;;;2.4;;
60718;SDS011;46567;51.660;5.824;2023-05-20T11:32:04;3.0;;;1.9;;
60718;SDS011;46567;51.660;5.824;2023-05-20T11:37:05;2.4;;;2.1;;
60718;SDS011;46567;51.660;5.824;2023-05-20T11:42:04;3.0;;;2.1;;
60718;SDS011;46567;51.660;5.824;2023-05-20T11:47:04;3.6;;;2.1;;
60718;SDS011;46567;51.660;5.824;2023-05-20T11:52:04;3.6;;;2.6;;
60718;SDS011;46567;51.660;5.824;2023-05-20T11:57:04;3.4;;;2.3;;
60718;SDS011;46567;51.660;5.824;2023-05-20T12:02:05;3.9;;;2.1;;
60718;SDS011;46567;51.660;5.824;2023-05-20T12:07:04;4.8;;;2.3;;
60718;SDS011;46567;51.660;5.824;2023-05-20T12:12:04;3.5;;;2.4;;
60718;SDS011;46567;51.660;5.824;2023-05-20T12:17:04;2.1;;;1.8;;
60718;SDS011;46567;51.660;5.824;2023-05-20T12:22:04;4.6;;;2.1;;
60718;SDS011;46567;51.660;5.824;2023-05-20T12:27:04;3.8;;;2.3;;
60718;SDS011;46567;51.660;5.824;2023-05-20T12:32:04;2.7;;;2.1;;
60718;SDS011;46567;51.660;5.824;2023-05-20T12:37:04;4.1;;;2.4;;
60718;SDS011;46567;51.660;5.824;2023-05-20T12:42:04;2.9;;;1.6;;
60718;SDS011;46567;51.660;5.824;2023-05-20T12:47:04;3.0;;;1.8;;
60718;SDS011;46567;51.660;5.824;2023-05-20T12:52:04;3.1;;;1.8;;
60718;SDS011;46567;51.660;5.824;2023-05-20T12:57:04;3.4;;;2.0;;
60718;SDS011;46567;51.660;5.824;2023-05-20T13:02:04;2.9;;;2.1;;
60718;SDS011;46567;51.660;5.824;2023-05-20T13:07:04;3.0;;;2.3;;
60718;SDS011;46567;51.660;5.824;2023-05-20T13:12:04;3.1;;;2.1;;
60718;SDS011;46567;51.660;5.824;2023-05-20T13:17:04;3.0;;;2.1;;
60718;SDS011;46567;51.660;5.824;2023-05-20T13:22:04;2.4;;;2.0;;
60718;SDS011;46567;51.660;5.824;2023-05-20T13:27:04;2.9;;;2.0;;
60718;SDS011;46567;51.660;5.824;2023-05-20T13:32:04;3.7;;;2.4;;
60718;SDS011;46567;51.660;5.824;2023-05-20T13:37:04;2.6;;;2.2;;
60718;SDS011;46567;51.660;5.824;2023-05-20T13:42:04;3.2;;;2.2;;
60718;SDS011;46567;51.660;5.824;2023-05-20T13:47:04;3.0;;;2.2;;
60718;SDS011;46567;51.660;5.824;2023-05-20T13:52:04;3.1;;;2.1;;
60718;SDS011;46567;51.660;5.824;2023-05-20T13:57:04;2.6;;;1.8;;
60718;SDS011;46567;51.660;5.824;2023-05-20T14:02:04;3.2;;;2.2;;
60718;SDS011;46567;51.660;5.824;2023-05-20T14:07:04;5.2;;;2.0;;
60718;SDS011;46567;51.660;5.824;2023-05-20T14:12:04;3.3;;;2.0;;
60718;SDS011;46567;51.660;5.824;2023-05-20T14:17:04;2.7;;;1.8;;
60718;SDS011;46567;51.660;5.824;2023-05-20T14:22:04;6.1;;;2.3;;
60718;SDS011;46567;51.660;5.824;2023-05-20T14:27:04;2.7;;;2.1;;
60718;SDS011;46567;51.660;5.824;2023-05-20T14:32:04;2.4;;;1.9;;
60718;SDS011;46567;51.660;5.824;2023-05-20T14:37:04;4.3;;;2.1;;
60718;SDS011;46567;51.660;5.824;2023-05-20T14:42:04;3.7;;;2.1;;
60718;SDS011;46567;51.660;5.824;2023-05-20T14:47:04;2.3;;;1.9;;
60718;SDS011;46567;51.660;5.824;2023-05-20T14:52:04;4.0;;;2.0;;
60718;SDS011;46567;51.660;5.824;2023-05-20T14:57:04;2.2;;;1.9;;
60718;SDS011;46567;51.660;5.824;2023-05-20T15:02:04;2.9;;;2.0;;
60718;SDS011;46567;51.660;5.824;2023-05-20T15:07:04;3.0;;;1.9;;
60718;SDS011;46567;51.660;5.824;2023-05-20T15:12:04;2.3;;;1.8;;
60718;SDS011;46567;51.660;5.824;2023-05-20T15:17:04;3.6;;;2.8;;
60718;SDS011;46567;51.660;5.824;2023-05-20T15:22:04;3.2;;;1.9;;
60718;SDS011;46567;51.660;5.824;2023-05-20T15:27:04;8.1;;;5.2;;
60718;SDS011;46567;51.660;5.824;2023-05-20T15:32:04;5.7;;;3.6;;
60718;SDS011;46567;51.660;5.824;2023-05-20T15:37:04;3.6;;;2.5;;
60718;SDS011;46567;51.660;5.824;2023-05-20T15:42:04;3.3;;;2.2;;
60718;SDS011;46567;51.660;5.824;2023-05-20T15:47:04;4.5;;;1.4;;
60718;SDS011;46567;51.660;5.824;2023-05-20T15:52:04;2.3;;;1.4;;
60718;SDS011;46567;51.660;5.824;2023-05-20T15:57:04;4.0;;;1.6;;
60718;SDS011;46567;51.660;5.824;2023-05-20T16:02:04;2.0;;;1.5;;
60718;SDS011;46567;51.660;5.824;2023-05-20T16:07:04;2.2;;;1.6;;
60718;SDS011;46567;51.660;5.824;2023-05-20T16:12:04;2.9;;;1.6;;
60718;SDS011;46567;51.660;5.824;2023-05-20T16:17:04;4.7;;;1.3;;
60718;SDS011;46567;51.660;5.824;2023-05-20T16:22:04;3.4;;;1.3;;
60718;SDS011;46567;51.660;5.824;2023-05-20T16:27:04;2.5;;;1.8;;
60718;SDS011;46567;51.660;5.824;2023-05-20T16:32:04;3.9;;;1.7;;
60718;SDS011;46567;51.660;5.824;2023-05-20T16:37:04;3.7;;;1.6;;
60718;SDS011;46567;51.660;5.824;2023-05-20T16:42:04;2.4;;;1.4;;
60718;SDS011;46567;51.660;5.824;2023-05-20T16:47:04;2.2;;;1.8;;
60718;SDS011;46567;51.660;5.824;2023-05-20T16:52:04;5.4;;;2.7;;
60718;SDS011;46567;51.660;5.824;2023-05-20T16:57:04;3.6;;;1.8;;
60718;SDS011;46567;51.660;5.824;2023-05-20T17:02:04;3.7;;;1.7;;
60718;SDS011;46567;51.660;5.824;2023-05-20T17:07:04;3.1;;;1.5;;
60718;SDS011;46567;51.660;5.824;2023-05-20T17:12:04;3.4;;;1.3;;
60718;SDS011;46567;51.660;5.824;2023-05-20T17:17:04;2.3;;;1.5;;
60718;SDS011;46567;51.660;5.824;2023-05-20T17:22:04;3.5;;;1.5;;
60718;SDS011;46567;51.660;5.824;2023-05-20T17:27:04;1.5;;;1.4;;
60718;SDS011;46567;51.660;5.824;2023-05-20T17:32:04;2.7;;;1.7;;
60718;SDS011;46567;51.660;5.824;2023-05-20T17:37:04;2.2;;;1.4;;
60718;SDS011;46567;51.660;5.824;2023-05-20T17:42:04;2.5;;;1.6;;
60718;SDS011;46567;51.660;5.824;2023-05-20T17:47:04;3.1;;;1.3;;
60718;SDS011;46567;51.660;5.824;2023-05-20T17:52:05;6.4;;;1.5;;
60718;SDS011;46567;51.660;5.824;2023-05-20T17:57:04;2.6;;;1.5;;
60718;SDS011;46567;51.660;5.824;2023-05-20T18:02:04;2.1;;;1.6;;
60718;SDS011;46567;51.660;5.824;2023-05-20T18:07:04;2.3;;;1.3;;
60718;SDS011;46567;51.660;5.824;2023-05-20T18:12:04;3.0;;;1.5;;
60718;SDS011;46567;51.660;5.824;2023-05-20T18:17:04;3.1;;;1.8;;
60718;SDS011;46567;51.660;5.824;2023-05-20T18:22:04;2.1;;;1.4;;
60718;SDS011;46567;51.660;5.824;2023-05-20T18:27:04;4.2;;;1.3;;
60718;SDS011;46567;51.660;5.824;2023-05-20T18:32:05;2.0;;;1.3;;
60718;SDS011;46567;51.660;5.824;2023-05-20T18:37:04;2.5;;;1.4;;
60718;SDS011;46567;51.660;5.824;2023-05-20T18:42:04;2.0;;;1.3;;
60718;SDS011;46567;51.660;5.824;2023-05-20T18:47:04;3.0;;;1.6;;
60718;SDS011;46567;51.660;5.824;2023-05-20T18:52:05;2.9;;;1.7;;
60718;SDS011;46567;51.660;5.824;2023-05-20T18:57:04;2.7;;;1.8;;
60718;SDS011;46567;51.660;5.824;2023-05-20T19:02:04;2.9;;;1.6;;
60718;SDS011;46567;51.660;5.824;2023-05-20T19:07:04;2.1;;;1.7;;
60718;SDS011;46567;51.660;5.824;2023-05-20T19:12:04;2.5;;;1.6;;
60718;SDS011;46567;51.660;5.824;2023-05-20T19:17:04;3.0;;;1.7;;
60718;SDS011;46567;51.660;5.824;2023-05-20T19:22:04;2.1;;;1.7;;
60718;SDS011;46567;51.660;5.824;2023-05-20T19:27:04;3.4;;;2.0;;
60718;SDS011;46567;51.660;5.824;2023-05-20T19:32:04;2.2;;;1.6;;
60718;SDS011;46567;51.660;5.824;2023-05-20T19:37:04;3.9;;;2.0;;
60718;SDS011;46567;51.660;5.824;2023-05-20T19:42:04;5.2;;;2.0;;
60718;SDS011;46567;51.660;5.824;2023-05-20T19:47:04;6.5;;;1.8;;
60718;SDS011;46567;51.660;5.824;2023-05-20T19:52:04;3.9;;;2.0;;
60718;SDS011;46567;51.660;5.824;2023-05-20T19:57:04;4.6;;;1.8;;
60718;SDS011;46567;51.660;5.824;2023-05-20T20:02:04;4.7;;;2.1;;
60718;SDS011;46567;51.660;5.824;2023-05-20T20:07:20;3.0;;;1.9;;
60718;SDS011;46567;51.660;5.824;2023-05-20T20:12:05;2.8;;;1.8;;
60718;SDS011;46567;51.660;5.824;2023-05-20T20:17:04;2.5;;;2.1;;
60718;SDS011;46567;51.660;5.824;2023-05-20T20:22:04;3.8;;;1.9;;
60718;SDS011;46567;51.660;5.824;2023-05-20T20:27:04;3.8;;;2.2;;
60718;SDS011;46567;51.660;5.824;2023-05-20T20:32:04;3.6;;;2.1;;
60718;SDS011;46567;51.660;5.824;2023-05-20T20:37:04;5.2;;;2.2;;
60718;SDS011;46567;51.660;5.824;2023-05-20T20:42:04;4.2;;;2.2;;
60718;SDS011;46567;51.660;5.824;2023-05-20T20:47:04;3.7;;;2.3;;
60718;SDS011;46567;51.660;5.824;2023-05-20T20:52:04;3.1;;;2.2;;
60718;SDS011;46567;51.660;5.824;2023-05-20T20:57:04;3.3;;;2.2;;
60718;SDS011;46567;51.660;5.824;2023-05-20T21:02:05;4.1;;;2.5;;
60718;SDS011;46567;51.660;5.824;2023-05-20T21:07:04;3.8;;;2.5;;
60718;SDS011;46567;51.660;5.824;2023-05-20T21:12:04;3.9;;;2.5;;
60718;SDS011;46567;51.660;5.824;2023-05-20T21:17:04;3.6;;;2.4;;
60718;SDS011;46567;51.660;5.824;2023-05-20T21:22:04;3.6;;;2.5;;
60718;SDS011;46567;51.660;5.824;2023-05-20T21:27:04;3.5;;;2.7;;
60718;SDS011;46567;51.660;5.824;2023-05-20T21:32:04;7.4;;;2.6;;
60718;SDS011;46567;51.660;5.824;2023-05-20T21:37:04;3.5;;;2.7;;
60718;SDS011;46567;51.660;5.824;2023-05-20T21:42:04;5.6;;;2.6;;
60718;SDS011;46567;51.660;5.824;2023-05-20T21:47:04;5.6;;;2.9;;
60718;SDS011;46567;51.660;5.824;2023-05-20T21:52:04;4.9;;;3.2;;
60718;SDS011;46567;51.660;5.824;2023-05-20T21:57:04;4.1;;;3.1;;
60718;SDS011;46567;51.660;5.824;2023-05-20T22:02:04;3.2;;;2.8;;
60718;SDS011;46567;51.660;5.824;2023-05-20T22:07:04;4.0;;;3.1;;
60718;SDS011;46567;51.660;5.824;2023-05-20T22:12:04;4.0;;;3.1;;
60718;SDS011;46567;51.660;5.824;2023-05-20T22:17:04;4.6;;;3.1;;
60718;SDS011;46567;51.660;5.824;2023-05-20T22:22:04;4.2;;;3.3;;
60718;SDS011;46567;51.660;5.824;2023-05-20T22:27:04;3.6;;;3.1;;
60718;SDS011;46567;51.660;5.824;2023-05-20T22:32:04;4.8;;;3.5;;
60718;SDS011;46567;51.660;5.824;2023-05-20T22:37:04;4.3;;;3.5;;
60718;SDS011;46567;51.660;5.824;2023-05-20T22:42:04;5.2;;;3.5;;
60718;SDS011;46567;51.660;5.824;2023-05-20T22:47:04;5.6;;;4.1;;
60718;SDS011;46567;51.660;5.824;2023-05-20T22:52:04;10.7;;;4.0;;
60718;SDS011;46567;51.660;5.824;2023-05-20T22:57:04;4.7;;;3.6;;
60718;SDS011;46567;51.660;5.824;2023-05-20T23:02:04;4.7;;;4.2;;
60718;SDS011;46567;51.660;5.824;2023-05-20T23:07:04;5.3;;;4.1;;
60718;SDS011;46567;51.660;5.824;2023-05-20T23:12:04;5.3;;;3.6;;
60718;SDS011;46567;51.660;5.824;2023-05-20T23:17:04;4.5;;;3.7;;
60718;SDS011;46567;51.660;5.824;2023-05-20T23:22:04;4.9;;;4.1;;
60718;SDS011;46567;51.660;5.824;2023-05-20T23:27:04;6.0;;;3.9;;
60718;SDS011;46567;51.660;5.824;2023-05-20T23:32:04;5.5;;;3.7;;
60718;SDS011;46567;51.660;5.824;2023-05-20T23:37:04;4.7;;;3.9;;
60718;SDS011;46567;51.660;5.824;2023-05-20T23:42:04;5.3;;;3.8;;
60718;SDS011;46567;51.660;5.824;2023-05-20T23:47:04;8.2;;;4.6;;
60718;SDS011;46567;51.660;5.824;2023-05-20T23:52:04;6.5;;;4.8;;
60718;SDS011;46567;51.660;5.824;2023-05-20T23:57:04;6.8;;;4.5;;
